Macheng, China
Current Conditions -  °F | °C
As of 4:00 PM on Wednesday 22 Oct 2014 (Local Time) from ZHHH Reporting Station
Clear Clear  
Wind Chill: 73°   Ceiling: Unl
Heat Index: 73°   Visibility: 6mi
Dew Point: 55°   Wind: 4mph
Humidity: 53%   Direction: 120°ESE
Pressure: 30.15"   Gusts: NA
Location:  31.18°N, 115.03°E
Report Text: ZHHH 220800Z 12002MPS 080V190 CAVOK 23/13 Q1021 NOSIG
Loading
Personal Weather Stations






























Interactive Weather Map
Tropical Storm Tracking
New forecast layout! Learn more

10-Day Weather Forecast

Advertisements
Track Severe Weather on mobile